Cedar, Minnesota
Current Conditions -  °F | °C
As of 3:45 PM on Wednesday 22 Oct 2014 (Local Time) from KANE Reporting Station
Scattered Clouds Scattered Clouds  
Wind Chill: 61°   Ceiling: Unl
Heat Index: 61°   Visibility: 10mi
Dew Point: 43°   Wind: 21mph
Humidity: 52%   Direction: 140°SE
Pressure: 30.06"   Gusts: 28mph
Location:  45.32°N, 93.29°W
Report Text: KANE 222045Z 14018G24KT 10SM SCT080 16/06 A3006
Loading
Personal Weather Stations






























Interactive Weather Map
Tropical Storm Tracking
New forecast layout! Learn more

10-Day Weather Forecast

Advertisements
Track Severe Weather on mobile